Iona, ID

1:53 AM MDT on October 26, 2014 (GMT -0600)
Rexburg-Madison County | Change Station
CLOSE
Current Station
Airport
Location: Rexburg,
Elevation: 4859 ft
Nearby Weather Stations
Active Advisory: Wind Advisory Active Notice: Record Report, Local Storm Report

Elev 4859 ft 43.83 °N, 111.81 °W | Updated 1 hour ago

Overcast
Overcast
53 °F
Feels Like 53 °F
N
22
Wind Variable Wind from SW
Gusts 37 mph

Today
High -- | Low -- °F
--% Chance of Precip.
Yesterday
High -- | Low -- °F
Precip. -- in
7:55 AM 6:26 PM
Waxing Crescent, 6% visible
Pressure 29.79 in
Visibility 10.0 miles
Clouds Mostly Cloudy 6000 ft
Mostly Cloudy 7500 ft
Overcast 9000 ft
Dew Point 39 °F
Humidity 59%
Rainfall 0.00 in
Snow Depth Not available.
UV 0 out of 12
Pollen 3.20 out of 12
PM2.5 Good
Flu Activity No Activity
METAR KRXE 260653Z AUTO 23019G32KT 10SM -RA BKN060 BKN075 OVC090 12/04 A2989 RMK AO2 PK WND 22032/0653 SLP086 P0000 T01170039 402330011

More Conditions Fewer Conditions

Pressure 29.79 in
Visibility 10.0 miles
Clouds Mostly Cloudy 6000 ft
Mostly Cloudy 7500 ft
Overcast 9000 ft
Dew Point 39 °F
Humidity 59%
Rainfall 0.00 in
Snow Depth Not available.
UV 0 out of 12
Pollen 3.20 out of 12
PM2.5 Good
Flu Activity No Activity
METAR KRXE 260653Z AUTO 23019G32KT 10SM -RA BKN060 BKN075 OVC090 12/04 A2989 RMK AO2 PK WND 22032/0653 SLP086 P0000 T01170039 402330011

More Conditions Fewer Conditions

10-Day Weather Forecast

Almanac

Astronomy

Oct. 26, 2014 Rise Set
Actual Time 7:55 AM MDT 6:26 PM MDT
Civil Twilight 7:25 AM MDT 6:56 PM MDT
Nautical Twilight 6:52 AM MDT 7:29 PM MDT
Astronomical Twilight 6:19 AM MDT 8:02 PM MDT
Moon 10:40 AM MDT 8:38 PM MDT
Length of Visible Light 11h 30m
Length of Day
10h 31m
Tomorrow will be 2m 43s shorter.
Waxing Crescent, 6% of the Moon is Illuminated
Today
Waxing Crescent
Oct 30
First Quarter
Nov 6
Full
Nov 14
Last Quarter
Nov 22
New

Today's Extremes

State Highs State Lows

Community

WunderPhotos

Upload Photos

1,765,115 photos uploaded!

Nearby

Air Quality

  Air Quality AQ Index Pollutant
Yesterday Good
PM2.5
Current Good
PM2.5
Sunday Good
PM2.5
Monday Good
PM2.5

Snow Depth

Station Depth Elevation
Sheep Mountain 0 in 6570 ft
Pine Creek Pass 0 in 6720 ft
Somsen Ranch 0 in 6800 ft
Wildhorse Divide 1 in 6490 ft
Crab Creek 0 in 6860 ft

Earthquake Activity

City Distance Mag. Time & Date
No recent earthquake activity has been reported nearby.
Minimum magnitude displayed is 2.5.

Coastal Water Temperatures

Place Temperature
No Stations Reporting

Nearby Weather Stations